Time;durP1;ratioP1;P1;durP2;ratioP2;P2;SDS_P1;SDS_P2;PMS_P1;PMS_P2;Temp;Humidity;BMP_temperature;BMP_pressure;BME280_temperature;BME280_humidity;BME280_pressure;Samples;Min_cycle;Max_cycle;Signal;HPM_P1;HPM_P2
2023/02/24 00:01:36;;;;;;;;;;;;;;;19.80;39.07;95144.88;10478417;28;2441;-51
2023/02/24 00:06:42;;;;;;;;;;;;;;;19.78;38.98;95137.28;10471375;28;1984;-53
2023/02/24 00:11:44;;;;;;;;;;;;;;;19.77;39.10;95127.03;10479307;28;2498;-50
2023/02/24 00:16:44;;;;;;;;;;;;;;;19.75;39.10;95114.16;10461894;28;2441;-52
2023/02/24 00:21:45;;;;;;;;;;;;;;;19.74;39.15;95117.09;10443813;28;2430;-51
2023/02/24 00:26:47;;;;;;;;;;;;;;;19.72;39.04;95112.09;10465360;28;2421;-50
2023/02/24 00:31:57;;;;;;;;;;;;;;;19.72;38.76;95111.31;10446979;28;2465;-51
2023/02/24 00:36:58;;;;;;;;;;;;;;;19.70;38.84;95111.59;10467425;28;2426;-53
2023/02/24 00:42:03;;;;;;;;;;;;;;;19.70;38.95;95113.47;10455052;28;2417;-52
2023/02/24 00:47:05;;;;;;;;;;;;;;;19.69;38.99;95117.13;10484001;28;2086;-50
2023/02/24 00:52:06;;;;;;;;;;;;;;;19.67;39.05;95119.25;10477598;28;2482;-52
2023/02/24 00:57:10;;;;;;;;;;;;;;;19.66;38.78;95115.09;10466355;28;2008;-54
2023/02/24 01:02:11;;;;;;;;;;;;;;;19.66;38.68;95099.31;10453862;28;2406;-52
2023/02/24 01:07:12;;;;;;;;;;;;;;;19.63;38.76;95100.66;10470573;28;1956;-50
2023/02/24 01:17:33;;;;;;;;;;;;;;;19.61;38.68;95083.59;10470787;28;2569;-52
2023/02/24 01:22:34;;;;;;;;;;;;;;;19.60;38.75;95076.78;10480488;28;2484;-48
2023/02/24 01:27:41;;;;;;;;;;;;;;;19.59;38.72;95075.19;10442532;28;2044;-52
2023/02/24 01:32:42;;;;;;;;;;;;;;;19.58;38.51;95078.91;10470274;28;2480;-49
2023/02/24 01:37:44;;;;;;;;;;;;;;;19.58;38.65;95077.03;10471771;28;2393;-51
2023/02/24 01:42:46;;;;;;;;;;;;;;;19.56;38.72;95075.78;10469538;28;2472;-54
2023/02/24 01:47:47;;;;;;;;;;;;;;;19.54;38.72;95065.53;10458398;28;2494;-51
2023/02/24 01:52:48;;;;;;;;;;;;;;;19.53;38.67;95060.56;10461078;28;2512;-50
2023/02/24 01:57:49;;;;;;;;;;;;;;;19.52;38.40;95056.34;10448779;28;2438;-52
2023/02/24 02:02:51;;;;;;;;;;;;;;;19.52;38.58;95036.13;10485292;28;2446;-51
2023/02/24 02:07:52;;;;;;;;;;;;;;;19.51;38.59;95025.91;10466172;28;1936;-49
2023/02/24 02:12:53;;;;;;;;;;;;;;;19.49;38.48;95029.56;10476531;28;2000;-53
2023/02/24 02:18:09;;;;;;;;;;;;;;;19.48;38.64;95030.66;10451201;28;2068;-54
2023/02/24 02:23:17;;;;;;;;;;;;;;;19.48;38.39;95022.78;10463384;28;2464;-51
2023/02/24 02:28:33;;;;;;;;;;;;;;;19.46;38.50;95029.38;10462731;28;2114;-51
2023/02/24 02:34:01;;;;;;;;;;;;;;;19.45;38.56;95015.44;10447508;28;2462;-54
2023/02/24 02:39:05;;;;;;;;;;;;;;;19.43;38.59;95020.19;10430003;28;2684;-52
2023/02/24 02:44:10;;;;;;;;;;;;;;;19.44;38.43;95031.50;10472556;28;2496;-52
2023/02/24 02:49:15;;;;;;;;;;;;;;;19.42;38.46;95021.28;10477489;28;2494;-52
2023/02/24 02:54:21;;;;;;;;;;;;;;;19.42;38.33;95013.38;10453806;28;2418;-50
2023/02/24 02:59:22;;;;;;;;;;;;;;;19.41;38.33;95016.31;10462495;28;2465;-53
2023/02/24 03:04:23;;;;;;;;;;;;;;;19.39;38.40;95013.19;10478412;28;2396;-52
2023/02/24 03:09:31;;;;;;;;;;;;;;;19.38;38.35;95022.91;10456598;28;1980;-51
2023/02/24 03:14:33;;;;;;;;;;;;;;;19.38;38.35;95017.66;10470469;28;2417;-51
2023/02/24 03:19:36;;;;;;;;;;;;;;;19.37;38.46;95013.44;10468544;28;2568;-53
2023/02/24 03:24:38;;;;;;;;;;;;;;;19.37;38.30;95004.81;10466732;28;2035;-52
2023/02/24 03:29:43;;;;;;;;;;;;;;;19.34;38.33;95002.72;10448891;28;2425;-48
2023/02/24 03:34:56;;;;;;;;;;;;;;;19.34;38.14;95005.34;10450183;28;2413;-53
2023/02/24 03:39:58;;;;;;;;;;;;;;;19.33;38.24;95004.56;10475952;28;2431;-50
2023/02/24 03:44:59;;;;;;;;;;;;;;;19.33;38.27;95004.56;10448117;28;2501;-51
2023/02/24 03:50:00;;;;;;;;;;;;;;;19.32;38.28;94997.72;10440864;28;2429;-52
2023/02/24 03:55:07;;;;;;;;;;;;;;;19.31;38.35;95000.63;10457625;28;2464;-49
2023/02/24 04:00:21;;;;;;;;;;;;;;;19.30;38.13;95002.50;10473192;28;2468;-52
2023/02/24 04:05:26;;;;;;;;;;;;;;;19.29;38.25;94982.50;10446154;28;2397;-53
2023/02/24 04:10:51;;;;;;;;;;;;;;;19.29;38.23;94982.50;10449061;28;2478;-48
2023/02/24 04:15:55;;;;;;;;;;;;;;;19.27;38.27;94982.03;10453636;28;2469;-53
2023/02/24 04:20:58;;;;;;;;;;;;;;;19.27;38.17;94970.72;10473360;28;2533;-51
2023/02/24 04:25:58;;;;;;;;;;;;;;;19.26;38.13;94962.06;10469372;28;2474;-53
2023/02/24 04:31:04;;;;;;;;;;;;;;;19.26;38.03;94962.06;10448805;28;1960;-50
2023/02/24 04:36:04;;;;;;;;;;;;;;;19.24;38.16;94958.94;10469671;28;2504;-50
2023/02/24 04:41:05;;;;;;;;;;;;;;;19.23;38.15;94956.59;10472910;28;2547;-51
2023/02/24 04:46:06;;;;;;;;;;;;;;;19.22;38.15;94947.94;10478935;28;2445;-51
2023/02/24 04:51:07;;;;;;;;;;;;;;;19.22;38.01;94934.81;10469072;28;2515;-49
2023/02/24 04:56:08;;;;;;;;;;;;;;;19.21;38.08;94933.22;10457311;28;2436;-52
2023/02/24 05:01:09;;;;;;;;;;;;;;;19.20;38.05;94926.44;10461735;28;2449;-51
2023/02/24 05:06:13;;;;;;;;;;;;;;;19.19;38.09;94922.22;10456258;28;2421;-54
2023/02/24 05:11:17;;;;;;;;;;;;;;;19.22;37.91;94910.38;10455012;28;2404;-52
2023/02/24 05:16:19;;;;;;;;;;;;;;;19.24;38.11;94906.41;10458190;28;2024;-51
2023/02/24 05:21:34;;;;;;;;;;;;;;;19.33;37.88;94903.91;10462880;28;2441;-52
2023/02/24 05:26:35;;;;;;;;;;;;;;;19.38;37.93;94886.25;10469883;28;2538;-50
2023/02/24 05:31:36;;;;;;;;;;;;;;;19.45;38.08;94885.88;10483421;28;2469;-48
2023/02/24 05:36:39;;;;;;;;;;;;;;;19.51;37.78;94900.50;10460709;28;2051;-50
2023/02/24 05:41:40;;;;;;;;;;;;;;;19.61;37.88;94894.31;10471001;28;2441;-50
2023/02/24 05:46:43;;;;;;;;;;;;;;;19.69;37.57;94886.53;10453355;28;2068;-50
2023/02/24 05:51:53;;;;;;;;;;;;;;;19.75;37.42;94879.34;10470291;28;2425;-53
2023/02/24 05:56:55;;;;;;;;;;;;;;;19.82;37.36;94880.56;10458499;28;2043;-52
2023/02/24 06:01:59;;;;;;;;;;;;;;;19.86;37.16;94867.59;10464194;28;2476;-48
2023/02/24 06:07:27;;;;;;;;;;;;;;;19.91;36.98;94876.16;10463498;28;2449;-49
2023/02/24 06:12:28;;;;;;;;;;;;;;;19.97;36.90;94874.25;10460947;28;2019;-50
2023/02/24 06:17:28;;;;;;;;;;;;;;;20.02;36.72;94874.13;10462084;28;2549;-48
2023/02/24 06:22:31;;;;;;;;;;;;;;;20.07;36.54;94887.22;10470206;28;2481;-53
2023/02/24 06:27:35;;;;;;;;;;;;;;;20.08;36.71;94879.03;10475412;28;2063;-51
2023/02/24 06:32:35;;;;;;;;;;;;;;;20.13;36.33;94878.16;10468677;28;2472;-49
2023/02/24 06:37:35;;;;;;;;;;;;;;;20.16;36.33;94882.81;10467248;28;2484;-50
2023/02/24 06:42:38;;;;;;;;;;;;;;;20.20;36.22;94886.47;10474743;28;2440;-47
2023/02/24 06:47:38;;;;;;;;;;;;;;;20.21;36.33;94894.09;10477423;28;2492;-50
2023/02/24 06:52:39;;;;;;;;;;;;;;;20.24;36.17;94890.06;10474803;28;2417;-47
2023/02/24 06:57:42;;;;;;;;;;;;;;;20.25;36.22;94902.97;10479940;28;2180;-51
2023/02/24 07:02:44;;;;;;;;;;;;;;;20.28;36.08;94905.00;10463368;28;2194;-51
2023/02/24 07:07:45;;;;;;;;;;;;;;;20.30;35.87;94896.78;10478432;28;2181;-49
2023/02/24 07:12:46;;;;;;;;;;;;;;;20.31;35.87;94889.69;10468643;28;2136;-49
2023/02/24 07:17:49;;;;;;;;;;;;;;;20.32;35.84;94884.13;10472016;28;2238;-49
2023/02/24 07:22:49;;;;;;;;;;;;;;;20.34;35.77;94875.97;10473130;28;2130;-50
2023/02/24 07:27:52;;;;;;;;;;;;;;;20.34;35.73;94881.97;10485397;28;2208;-53
2023/02/24 07:32:54;;;;;;;;;;;;;;;20.35;36.04;94872.25;10476783;28;2265;-52
2023/02/24 07:38:00;;;;;;;;;;;;;;;20.38;35.80;94872.44;10478768;28;2186;-49
2023/02/24 07:43:05;;;;;;;;;;;;;;;20.37;36.15;94872.72;10470059;28;2152;-50
2023/02/24 07:48:06;;;;;;;;;;;;;;;20.39;36.09;94867.94;10472927;28;2187;-51
2023/02/24 07:53:08;;;;;;;;;;;;;;;20.40;36.29;94865.03;10472869;28;2198;-49
2023/02/24 07:58:09;;;;;;;;;;;;;;;20.41;36.73;94856.06;10471608;28;2229;-52
2023/02/24 08:03:09;;;;;;;;;;;;;;;20.42;36.77;94857.63;10474871;28;2152;-49
2023/02/24 08:08:11;;;;;;;;;;;;;;;20.41;37.12;94850.78;10474805;28;2223;-47
2023/02/24 08:13:12;;;;;;;;;;;;;;;20.39;37.03;94842.41;10479071;28;2199;-51
2023/02/24 08:18:12;;;;;;;;;;;;;;;20.37;37.10;94841.94;10477355;28;2186;-52
2023/02/24 08:23:13;;;;;;;;;;;;;;;20.37;37.47;94823.50;10474194;28;2222;-50
2023/02/24 08:28:14;;;;;;;;;;;;;;;20.35;37.56;94823.03;10475625;28;2148;-53
2023/02/24 08:33:19;;;;;;;;;;;;;;;20.34;37.52;94816.19;10461760;28;2300;-50
2023/02/24 08:38:19;;;;;;;;;;;;;;;20.32;37.82;94810.44;10472045;28;2211;-49
2023/02/24 08:43:31;;;;;;;;;;;;;;;20.28;37.97;94810.25;10448655;28;2144;-48
2023/02/24 08:48:36;;;;;;;;;;;;;;;20.25;38.13;94802.97;10466122;28;2181;-52
2023/02/24 08:53:39;;;;;;;;;;;;;;;20.24;38.27;94801.38;10463771;28;2224;-49
2023/02/24 08:58:44;;;;;;;;;;;;;;;20.23;38.07;94797.22;10456487;28;2265;-47
2023/02/24 09:03:45;;;;;;;;;;;;;;;20.19;38.33;94790.97;10468218;28;2188;-50
2023/02/24 09:08:46;;;;;;;;;;;;;;;20.16;38.30;94793.38;10464175;28;2177;-46
2023/02/24 09:13:56;;;;;;;;;;;;;;;20.12;38.69;94789.75;10473384;28;2187;-46
2023/02/24 09:24:25;;;;;;;;;;;;;;;20.06;38.57;94775.16;10468722;28;2119;-50
2023/02/24 09:29:32;;;;;;;;;;;;;;;20.04;38.26;94761.50;10469457;28;2531;-50
2023/02/24 09:34:33;;;;;;;;;;;;;;;20.03;38.52;94767.84;10467153;28;2193;-46
2023/02/24 09:44:54;;;;;;;;;;;;;;;19.99;38.13;94748.47;10465509;28;2197;-46
2023/02/24 09:49:59;;;;;;;;;;;;;;;19.95;38.48;94740.38;10465359;28;2207;-47
2023/02/24 09:55:17;;;;;;;;;;;;;;;19.95;38.40;94743.00;10470773;28;2203;-47
2023/02/24 10:00:24;;;;;;;;;;;;;;;19.95;38.60;94726.44;10479075;28;2204;-49
2023/02/24 10:05:26;;;;;;;;;;;;;;;19.94;38.51;94724.88;10462365;28;2265;-49
2023/02/24 10:10:28;;;;;;;;;;;;;;;19.94;38.56;94706.47;10473348;28;2194;-45
2023/02/24 10:20:52;;;;;;;;;;;;;;;19.91;38.70;94693.91;10458981;28;2125;-50
2023/02/24 10:25:54;;;;;;;;;;;;;;;19.91;38.65;94689.44;10467764;28;2197;-47
2023/02/24 10:31:24;;;;;;;;;;;;;;;19.92;38.77;94679.69;10467749;28;2247;-48
2023/02/24 10:36:34;;;;;;;;;;;;;;;19.90;38.65;94687.88;10463877;28;2189;-52
2023/02/24 10:41:44;;;;;;;;;;;;;;;19.90;38.88;94679.22;10471176;28;2121;-50
2023/02/24 10:47:10;;;;;;;;;;;;;;;19.87;38.72;94671.91;10475454;28;2256;-49
2023/02/24 10:52:35;;;;;;;;;;;;;;;19.84;39.07;94668.03;10465234;28;2136;-52
2023/02/24 10:57:48;;;;;;;;;;;;;;;19.83;39.27;94668.28;10426881;28;2246;-47
2023/02/24 11:03:09;;;;;;;;;;;;;;;19.83;39.23;94658.56;10471836;28;2164;-47
2023/02/24 11:08:14;;;;;;;;;;;;;;;19.83;38.99;94644.63;10470992;28;2140;-49
2023/02/24 11:18:48;;;;;;;;;;;;;;;19.77;39.05;94628.19;10475910;28;2077;-50
2023/02/24 11:23:50;;;;;;;;;;;;;;;19.76;39.35;94613.50;10468834;28;2140;-49
2023/02/24 11:28:57;;;;;;;;;;;;;;;19.76;39.58;94608.25;10455510;28;2209;-52
2023/02/24 11:34:00;;;;;;;;;;;;;;;19.77;39.76;94593.22;10468453;28;2178;-50
2023/02/24 11:39:04;;;;;;;;;;;;;;;19.77;39.77;94587.97;10466246;28;2209;-50
2023/02/24 11:44:09;;;;;;;;;;;;;;;19.77;39.60;94577.44;10470636;28;2187;-50
2023/02/24 11:49:28;;;;;;;;;;;;;;;19.76;39.85;94570.66;10455632;28;2227;-51
2023/02/24 11:54:38;;;;;;;;;;;;;;;19.82;40.37;94564.19;10471183;28;2198;-49
2023/02/24 11:59:41;;;;;;;;;;;;;;;19.79;40.49;94551.63;10460355;28;2127;-46
2023/02/24 12:04:45;;;;;;;;;;;;;;;19.76;40.49;94541.72;10486105;28;2187;-48
2023/02/24 12:09:47;;;;;;;;;;;;;;;19.75;40.38;94537.53;10453765;28;2194;-52
2023/02/24 12:14:50;;;;;;;;;;;;;;;19.73;40.39;94532.56;10454913;28;2074;-47
2023/02/24 12:19:56;;;;;;;;;;;;;;;19.70;40.05;94525.25;10472276;28;2136;-48
2023/02/24 12:24:57;;;;;;;;;;;;;;;19.70;39.95;94519.25;10476442;28;2182;-50
2023/02/24 12:30:05;;;;;;;;;;;;;;;19.67;39.84;94506.69;10471823;28;2214;-47
2023/02/24 12:35:19;;;;;;;;;;;;;;;19.65;39.55;94506.19;10445617;28;2146;-46
2023/02/24 12:40:38;;;;;;;;;;;;;;;19.63;39.76;94498.63;10455577;28;2128;-49
2023/02/24 12:45:51;;;;;;;;;;;;;;;19.60;39.77;94493.19;10465344;28;2140;-47
2023/02/24 12:51:02;;;;;;;;;;;;;;;19.62;39.70;94485.78;10474500;28;2284;-50
2023/02/24 12:56:18;;;;;;;;;;;;;;;19.58;39.70;94480.31;10467631;28;2139;-48
2023/02/24 13:01:35;;;;;;;;;;;;;;;19.58;39.61;94474.31;10461768;28;2202;-48
2023/02/24 13:06:48;;;;;;;;;;;;;;;19.56;39.71;94471.19;10441973;28;2219;-51
2023/02/24 13:11:54;;;;;;;;;;;;;;;19.55;39.50;94473.03;10468259;28;2326;-49
2023/02/24 13:17:21;;;;;;;;;;;;;;;19.54;39.56;94465.47;10471739;28;2223;-50
2023/02/24 13:22:21;;;;;;;;;;;;;;;19.51;39.53;94458.16;10462438;28;2231;-47
2023/02/24 13:27:23;;;;;;;;;;;;;;;19.49;39.43;94451.34;10476676;28;2136;-48
2023/02/24 13:32:29;;;;;;;;;;;;;;;19.49;39.29;94443.44;10446781;28;2214;-50
2023/02/24 13:37:35;;;;;;;;;;;;;;;19.49;39.35;94432.94;10469825;28;2202;-52
2023/02/24 13:42:36;;;;;;;;;;;;;;;19.46;39.39;94430.13;10448449;28;2183;-49
2023/02/24 13:47:36;;;;;;;;;;;;;;;19.45;39.31;94423.34;10466679;28;2212;-53
2023/02/24 13:52:52;;;;;;;;;;;;;;;19.44;39.28;94412.03;10451744;28;2159;-49
2023/02/24 13:57:59;;;;;;;;;;;;;;;19.42;39.04;94416.03;10468895;28;2143;-49
2023/02/24 14:02:59;;;;;;;;;;;;;;;19.40;39.16;94416.34;10472898;28;2906;-47
2023/02/24 14:08:00;;;;;;;;;;;;;;;19.40;39.22;94413.72;10472189;28;2192;-50
2023/02/24 14:13:03;;;;;;;;;;;;;;;19.41;38.97;94406.63;10455953;28;2230;-52
2023/02/24 14:18:04;;;;;;;;;;;;;;;19.38;39.06;94404.56;10459935;28;2233;-53
2023/02/24 14:23:17;;;;;;;;;;;;;;;19.38;39.17;94391.44;10466448;28;2147;-48
2023/02/24 14:28:19;;;;;;;;;;;;;;;19.36;38.88;94390.97;10441846;28;2178;-51
2023/02/24 14:33:30;;;;;;;;;;;;;;;19.37;39.21;94382.78;10444897;28;2178;-47
2023/02/24 14:38:37;;;;;;;;;;;;;;;19.40;39.71;94384.81;10471383;28;2184;-53
2023/02/24 14:43:41;;;;;;;;;;;;;;;19.42;40.01;94387.91;10459714;28;2173;-50
2023/02/24 14:48:42;;;;;;;;;;;;;;;19.47;40.03;94385.16;10468320;28;2218;-50
2023/02/24 14:54:04;;;;;;;;;;;;;;;19.49;39.91;94377.75;10477446;28;2199;-50
2023/02/24 14:59:05;;;;;;;;;;;;;;;19.52;39.57;94363.25;10479629;28;2263;-54
2023/02/24 15:04:22;;;;;;;;;;;;;;;19.55;39.44;94351.34;10477931;28;2165;-51
2023/02/24 15:09:23;;;;;;;;;;;;;;;19.57;39.20;94349.22;10459384;28;2291;-52
2023/02/24 15:14:25;;;;;;;;;;;;;;;19.61;39.14;94347.53;10481587;28;2259;-51
2023/02/24 15:19:32;;;;;;;;;;;;;;;19.63;39.02;94311.19;10471854;28;2280;-51
2023/02/24 15:24:32;;;;;;;;;;;;;;;19.63;38.84;94319.88;10478848;28;2231;-48
2023/02/24 15:29:33;;;;;;;;;;;;;;;19.66;38.75;94329.00;10461310;28;2240;-53
2023/02/24 15:34:34;;;;;;;;;;;;;;;19.66;38.72;94316.63;10479678;28;2238;-52
2023/02/24 15:39:35;;;;;;;;;;;;;;;19.68;38.49;94311.09;10468943;28;2120;-51
2023/02/24 15:44:36;;;;;;;;;;;;;;;19.70;38.22;94306.31;10472388;28;2111;-49
2023/02/24 15:49:37;;;;;;;;;;;;;;;19.70;38.22;94291.28;10480380;28;2115;-53
2023/02/24 15:54:37;;;;;;;;;;;;;;;19.77;39.65;94285.59;10475293;28;2449;-50
2023/02/24 15:59:39;;;;;;;;;;;;;;;19.83;40.42;94287.00;10468285;28;2205;-51
2023/02/24 16:04:39;;;;;;;;;;;;;;;19.86;40.94;94275.91;10469914;28;2118;-52
2023/02/24 16:09:39;;;;;;;;;;;;;;;19.90;41.42;94271.59;10466490;28;2172;-54
2023/02/24 16:14:40;;;;;;;;;;;;;;;19.93;41.82;94255.97;10473234;28;2171;-53
2023/02/24 16:19:41;;;;;;;;;;;;;;;19.98;41.74;94266.34;10474792;28;2165;-50
2023/02/24 16:24:42;;;;;;;;;;;;;;;20.01;41.88;94246.56;10472310;28;2180;-53
2023/02/24 16:29:43;;;;;;;;;;;;;;;20.03;41.67;94249.66;10472013;28;2135;-53
2023/02/24 16:34:44;;;;;;;;;;;;;;;20.07;41.72;94261.13;10472568;28;2154;-53
2023/02/24 16:39:44;;;;;;;;;;;;;;;20.08;41.57;94262.66;10473916;28;2124;-51
2023/02/24 16:44:46;;;;;;;;;;;;;;;20.11;41.44;94280.47;10448046;28;2990;-49
2023/02/24 16:49:47;;;;;;;;;;;;;;;20.14;40.68;94279.84;10470311;28;2143;-52
2023/02/24 16:54:48;;;;;;;;;;;;;;;20.18;40.17;94262.38;10475515;28;2153;-54
2023/02/24 16:59:49;;;;;;;;;;;;;;;20.22;40.07;94266.75;10473021;28;2224;-48
2023/02/24 17:04:49;;;;;;;;;;;;;;;20.23;40.39;94263.06;10460920;28;2187;-52
2023/02/24 17:09:50;;;;;;;;;;;;;;;20.25;39.99;94250.38;10452962;28;2259;-51
2023/02/24 17:14:52;;;;;;;;;;;;;;;20.28;39.68;94255.00;10461509;28;2189;-50
2023/02/24 17:19:52;;;;;;;;;;;;;;;20.32;39.92;94252.53;10463549;28;2152;-53
2023/02/24 17:24:52;;;;;;;;;;;;;;;20.49;39.45;94251.78;10455550;28;2225;-53
2023/02/24 17:29:54;;;;;;;;;;;;;;;20.58;39.02;94244.66;10464628;28;2221;-52
2023/02/24 17:34:55;;;;;;;;;;;;;;;20.66;38.76;94243.91;10466905;28;2231;-52
2023/02/24 17:39:55;;;;;;;;;;;;;;;20.76;38.43;94238.31;10466941;28;2201;-53
2023/02/24 17:44:55;;;;;;;;;;;;;;;20.82;38.27;94240.50;10466437;28;2139;-53
2023/02/24 17:49:55;;;;;;;;;;;;;;;20.89;38.07;94230.28;10467048;28;2190;-52
2023/02/24 17:54:56;;;;;;;;;;;;;;;20.92;37.99;94208.56;10460946;28;2135;-53
2023/02/24 17:59:56;;;;;;;;;;;;;;;20.93;37.74;94209.34;10464514;28;2161;-54
2023/02/24 18:04:57;;;;;;;;;;;;;;;20.96;37.73;94201.56;10462183;28;2323;-51
2023/02/24 18:09:58;;;;;;;;;;;;;;;20.97;37.62;94195.25;10449822;28;2251;-54
2023/02/24 18:14:58;;;;;;;;;;;;;;;20.98;37.51;94185.44;10467148;28;2193;-53
2023/02/24 18:19:59;;;;;;;;;;;;;;;20.99;37.35;94177.25;10470372;28;2156;-53
2023/02/24 18:25:00;;;;;;;;;;;;;;;20.97;37.45;94176.81;10477356;28;2202;-54
2023/02/24 18:30:01;;;;;;;;;;;;;;;21.00;37.09;94165.63;10475607;28;2511;-51
2023/02/24 18:35:02;;;;;;;;;;;;;;;21.01;37.65;94153.22;10465782;28;2194;-48
2023/02/24 18:40:02;;;;;;;;;;;;;;;21.01;37.32;94153.22;10474019;28;2224;-50
2023/02/24 18:45:03;;;;;;;;;;;;;;;21.02;37.41;94152.16;10471076;28;2183;-52
2023/02/24 18:50:04;;;;;;;;;;;;;;;21.04;37.70;94134.97;10475690;28;2108;-53
2023/02/24 18:55:04;;;;;;;;;;;;;;;21.06;37.38;94130.16;10477657;28;2170;-52
2023/02/24 19:00:05;;;;;;;;;;;;;;;21.05;37.36;94128.63;10466439;28;2243;-51
2023/02/24 19:05:06;;;;;;;;;;;;;;;20.98;38.09;94127.50;10453663;28;2164;-47
2023/02/24 19:10:06;;;;;;;;;;;;;;;20.99;38.32;94127.22;10470643;28;2192;-51
2023/02/24 19:15:07;;;;;;;;;;;;;;;20.89;37.86;94124.13;10471380;28;2179;-48
2023/02/24 19:20:08;;;;;;;;;;;;;;;20.79;37.60;94124.47;10470824;28;2143;-49
2023/02/24 19:25:08;;;;;;;;;;;;;;;20.70;37.72;94142.13;10475744;28;2154;-49
2023/02/24 19:30:08;;;;;;;;;;;;;;;20.63;37.64;94155.00;10469895;28;2159;-50
2023/02/24 19:35:09;;;;;;;;;;;;;;;20.53;37.54;94150.81;10472728;28;2182;-52
2023/02/24 19:40:11;;;;;;;;;;;;;;;20.46;37.79;94155.81;10455818;28;2203;-51
2023/02/24 19:45:21;;;;;;;;;;;;;;;20.37;38.60;94164.75;10476792;28;2135;-51
2023/02/24 19:50:21;;;;;;;;;;;;;;;20.33;38.24;94159.34;10470730;28;2189;-53
2023/02/24 19:55:22;;;;;;;;;;;;;;;20.26;38.49;94161.66;10465409;28;2204;-53
2023/02/24 20:00:23;;;;;;;;;;;;;;;20.18;38.67;94146.63;10478469;28;2188;-52
2023/02/24 20:05:24;;;;;;;;;;;;;;;20.12;39.46;94145.22;10472704;28;2194;-50
2023/02/24 20:10:24;;;;;;;;;;;;;;;20.10;39.39;94155.28;10455231;28;2194;-52
2023/02/24 20:15:25;;;;;;;;;;;;;;;20.06;40.48;94143.81;10474507;28;2123;-49
2023/02/24 20:20:25;;;;;;;;;;;;;;;20.01;40.57;94133.47;10462001;28;2215;-49
2023/02/24 20:25:26;;;;;;;;;;;;;;;19.97;40.72;94133.28;10467715;28;2167;-54
2023/02/24 20:30:26;;;;;;;;;;;;;;;19.94;40.77;94144.44;10474586;28;2127;-52
2023/02/24 20:35:27;;;;;;;;;;;;;;;19.91;40.93;94146.88;10466786;28;2206;-54
2023/02/24 20:40:31;;;;;;;;;;;;;;;19.89;41.13;94141.16;10475310;28;2258;-53
2023/02/24 20:45:32;;;;;;;;;;;;;;;19.88;41.05;94152.78;10463522;28;2239;-52
2023/02/24 20:50:33;;;;;;;;;;;;;;;19.82;41.17;94146.91;10469202;28;2168;-54
2023/02/24 20:55:34;;;;;;;;;;;;;;;19.83;41.10;94174.72;10470715;28;2173;-54
2023/02/24 21:00:37;;;;;;;;;;;;;;;19.79;41.08;94165.91;10468485;28;2197;-54
2023/02/24 21:05:38;;;;;;;;;;;;;;;19.78;41.11;94176.72;10469457;28;2183;-53
2023/02/24 21:10:42;;;;;;;;;;;;;;;19.76;41.31;94165.75;10466605;28;2350;-52
2023/02/24 21:15:50;;;;;;;;;;;;;;;19.74;41.45;94163.41;10465331;28;2250;-50
2023/02/24 21:20:52;;;;;;;;;;;;;;;19.72;41.23;94170.06;10477202;28;2234;-51
2023/02/24 21:25:53;;;;;;;;;;;;;;;19.70;41.08;94185.38;10481688;28;2131;-53
2023/02/24 21:30:53;;;;;;;;;;;;;;;19.69;41.06;94160.16;10483724;28;2600;-51
2023/02/24 21:35:57;;;;;;;;;;;;;;;19.66;40.95;94176.56;10472767;28;2173;-53
2023/02/24 21:40:59;;;;;;;;;;;;;;;19.63;40.82;94161.38;10477097;28;2165;-53
2023/02/24 21:46:01;;;;;;;;;;;;;;;19.62;40.81;94162.47;10464617;28;2172;-51
2023/02/24 21:51:02;;;;;;;;;;;;;;;19.61;40.69;94150.38;10468547;28;2560;-53
2023/02/24 21:56:09;;;;;;;;;;;;;;;19.58;40.76;94137.88;10466066;28;2136;-54
2023/02/24 22:01:14;;;;;;;;;;;;;;;19.57;40.50;94141.56;10471776;28;2145;-52
2023/02/24 22:06:15;;;;;;;;;;;;;;;19.54;40.59;94142.19;10445264;28;2167;-52
2023/02/24 22:11:16;;;;;;;;;;;;;;;19.54;40.31;94150.06;10478589;28;2291;-51
2023/02/24 22:16:21;;;;;;;;;;;;;;;19.52;40.36;94160.09;10475448;28;2194;-53
2023/02/24 22:21:22;;;;;;;;;;;;;;;19.50;40.11;94165.66;10469715;28;2137;-55
2023/02/24 22:26:23;;;;;;;;;;;;;;;19.47;39.89;94159.16;10474144;28;2319;-53
2023/02/24 22:31:25;;;;;;;;;;;;;;;19.45;40.16;94145.53;10468479;28;2482;-51
2023/02/24 22:36:29;;;;;;;;;;;;;;;19.45;40.38;94132.41;10461100;28;2246;-52
2023/02/24 22:41:31;;;;;;;;;;;;;;;19.51;40.07;94124.41;10480551;28;2262;-49
2023/02/24 22:46:32;;;;;;;;;;;;;;;19.51;41.25;94112.03;10481089;28;2190;-47
2023/02/24 22:51:33;;;;;;;;;;;;;;;19.53;41.43;94114.34;10466603;28;2227;-52
2023/02/24 22:56:33;;;;;;;;;;;;;;;19.53;41.82;94114.34;10474208;28;2192;-53
2023/02/24 23:01:34;;;;;;;;;;;;;;;19.52;42.03;94133.81;10476032;28;2258;-51
2023/02/24 23:06:35;;;;;;;;;;;;;;;19.51;41.69;94179.59;10477177;28;2183;-50
2023/02/24 23:11:36;;;;;;;;;;;;;;;19.49;42.13;94214.06;10481701;28;2418;-49
2023/02/24 23:16:37;;;;;;;;;;;;;;;19.47;41.75;94238.00;10478077;28;2139;-50
2023/02/24 23:21:38;;;;;;;;;;;;;;;19.44;42.09;94235.97;10477714;28;2244;-51
2023/02/24 23:26:40;;;;;;;;;;;;;;;19.43;42.28;94265.94;10482446;28;2244;-48
2023/02/24 23:31:41;;;;;;;;;;;;;;;19.43;42.48;94268.56;10476157;28;2108;-49
2023/02/24 23:36:43;;;;;;;;;;;;;;;19.44;42.48;94269.34;10478100;28;2198;-51
2023/02/24 23:41:43;;;;;;;;;;;;;;;19.41;42.69;94264.72;10480558;28;2187;-51
2023/02/24 23:46:45;;;;;;;;;;;;;;;19.40;42.46;94290.22;10477342;28;2174;-51
2023/02/24 23:51:46;;;;;;;;;;;;;;;19.39;42.76;94283.41;10477334;28;2128;-49
2023/02/24 23:56:46;;;;;;;;;;;;;;;19.38;43.10;94288.97;10474091;28;2204;-52
